createdAt,value
2018-12-07T00:00:02.657Z,8.63
2018-12-07T00:02:06.864Z,10.27
2018-12-07T00:04:11.088Z,8.43
2018-12-07T00:06:14.913Z,8.87
2018-12-07T00:08:23.577Z,8.63
2018-12-07T00:10:27.635Z,9.83
2018-12-07T00:12:36.305Z,7.87
2018-12-07T00:14:45.155Z,9.53
2018-12-07T00:18:53.138Z,9.30
2018-12-07T00:21:01.717Z,8.70
2018-12-07T00:23:10.630Z,10.13
2018-12-07T00:25:19.323Z,9.83
2018-12-07T00:27:28.123Z,10.93
2018-12-07T00:29:33.264Z,9.40
2018-12-07T00:31:42.779Z,9.50
2018-12-07T00:33:46.912Z,11.93
2018-12-07T00:35:50.677Z,11.33
2018-12-07T00:37:59.701Z,10.97
2018-12-07T00:40:04.655Z,9.40
2018-12-07T00:42:11.726Z,10.77
2018-12-07T00:44:22.006Z,13.00
2018-12-07T00:46:31.168Z,10.73
2018-12-07T00:48:35.176Z,11.20
2018-12-07T00:50:43.817Z,11.50
2018-12-07T00:52:47.924Z,11.33
2018-12-07T00:54:56.495Z,10.73
2018-12-07T00:57:05.169Z,11.00
2018-12-07T00:59:14.014Z,11.27
2018-12-07T01:01:24.289Z,12.97
2018-12-07T01:03:32.803Z,12.03
2018-12-07T01:05:41.736Z,13.67
2018-12-07T01:07:45.837Z,14.17
2018-12-07T01:09:49.624Z,16.10
2018-12-07T01:11:53.420Z,12.23
2018-12-07T01:14:02.191Z,12.63
2018-12-07T01:16:06.790Z,14.03
2018-12-07T01:18:12.501Z,13.00
2018-12-07T01:20:21.126Z,11.10
2018-12-07T01:22:25.143Z,11.87
2018-12-07T01:24:33.798Z,12.10
2018-12-07T01:26:39.956Z,13.50
2018-12-07T01:28:43.988Z,10.57
2018-12-07T01:30:52.584Z,16.33
2018-12-07T01:32:56.897Z,13.13
2018-12-07T01:35:00.690Z,12.30
2018-12-07T01:37:13.671Z,14.57
2018-12-07T01:39:22.542Z,14.10
2018-12-07T01:41:26.442Z,16.40
2018-12-07T01:43:30.416Z,11.47
2018-12-07T01:45:39.214Z,13.43
2018-12-07T01:47:49.679Z,15.10
2018-12-07T01:49:53.892Z,11.93
2018-12-07T01:52:02.599Z,13.20
2018-12-07T01:54:11.190Z,12.60
2018-12-07T01:56:20.232Z,13.03
2018-12-07T01:58:28.899Z,11.40
2018-12-07T02:00:37.615Z,13.27
2018-12-07T02:02:47.444Z,12.53
2018-12-07T02:04:51.470Z,12.83
2018-12-07T02:06:55.123Z,15.33
2018-12-07T02:09:01.339Z,13.27
2018-12-07T02:11:11.091Z,13.63
2018-12-07T02:13:19.951Z,13.03
2018-12-07T02:15:24.212Z,11.83
2018-12-07T02:17:32.688Z,13.87
2018-12-07T02:21:40.533Z,15.30
2018-12-07T02:23:49.294Z,13.13
2018-12-07T02:25:53.184Z,15.27
2018-12-07T02:28:01.871Z,14.80
2018-12-07T02:30:10.501Z,14.03
2018-12-07T02:32:19.390Z,14.83
2018-12-07T02:34:28.271Z,13.63
2018-12-07T02:36:37.169Z,14.73
2018-12-07T02:38:46.101Z,14.13
2018-12-07T02:40:55.175Z,12.57
2018-12-07T02:42:59.320Z,16.60
2018-12-07T02:45:08.072Z,14.80
2018-12-07T02:47:22.190Z,14.57
2018-12-07T02:49:26.685Z,15.33
2018-12-07T02:51:35.470Z,16.53
2018-12-07T02:53:39.697Z,13.50
2018-12-07T02:55:43.615Z,17.17
2018-12-07T02:57:52.345Z,12.67
2018-12-07T03:00:01.156Z,17.50
2018-12-07T03:02:07.117Z,14.13
2018-12-07T03:04:15.756Z,16.10
2018-12-07T03:06:19.617Z,17.80
2018-12-07T03:08:28.369Z,14.67
2018-12-07T03:10:32.337Z,14.73
2018-12-07T03:12:36.579Z,15.63
2018-12-07T03:14:45.368Z,16.33
2018-12-07T03:16:55.221Z,14.97
2018-12-07T03:19:04.030Z,12.97
2018-12-07T03:27:22.233Z,14.70
2018-12-07T03:29:31.292Z,15.00
2018-12-07T03:31:35.514Z,15.07
2018-12-07T03:33:39.502Z,16.47
2018-12-07T03:35:43.241Z,13.23
2018-12-07T03:37:47.547Z,12.10
2018-12-07T03:39:50.956Z,14.77
2018-12-07T03:41:59.634Z,15.53
2018-12-07T03:44:03.751Z,16.67
2018-12-07T03:46:07.512Z,12.73
2018-12-07T03:48:11.013Z,15.30
2018-12-07T03:50:19.692Z,13.00
2018-12-07T03:52:28.708Z,14.13
2018-12-07T03:54:37.319Z,13.50
2018-12-07T03:56:41.499Z,16.20
2018-12-07T03:58:50.300Z,11.93
2018-12-07T04:00:54.116Z,15.43
2018-12-07T04:02:57.858Z,14.50
2018-12-07T04:05:01.925Z,18.57
2018-12-07T04:07:05.996Z,13.10
2018-12-07T04:09:14.540Z,11.97
2018-12-07T04:11:23.209Z,11.43
2018-12-07T04:13:32.193Z,10.50
2018-12-07T04:15:36.030Z,15.27
2018-12-07T04:17:44.557Z,12.40
2018-12-07T04:19:53.335Z,13.43
2018-12-07T04:21:57.453Z,12.77
2018-12-07T04:24:01.511Z,13.53
2018-12-07T04:28:09.517Z,13.20
2018-12-07T04:30:24.693Z,12.57
2018-12-07T04:32:33.938Z,11.40
2018-12-07T04:34:38.165Z,9.47
2018-12-07T04:36:42.127Z,10.20
2018-12-07T04:38:45.896Z,11.33
2018-12-07T04:40:55.774Z,11.77
2018-12-07T04:42:59.390Z,11.27
2018-12-07T04:45:03.613Z,9.93
2018-12-07T04:47:07.873Z,8.93
2018-12-07T04:49:16.616Z,11.13
2018-12-07T04:51:20.723Z,9.07
2018-12-07T04:53:29.517Z,8.70
2018-12-07T04:55:38.441Z,10.47
2018-12-07T04:57:47.516Z,10.17
2018-12-07T04:59:51.790Z,8.27
2018-12-07T05:01:55.577Z,9.00
2018-12-07T05:04:04.314Z,11.17
2018-12-07T05:06:13.245Z,11.37
2018-12-07T05:08:22.103Z,7.47
2018-12-07T05:10:26.174Z,11.00
2018-12-07T05:12:35.711Z,10.10
2018-12-07T05:14:44.699Z,9.43
2018-12-07T05:16:53.427Z,16.00
2018-12-07T05:19:02.092Z,10.30
2018-12-07T05:21:06.194Z,8.83
2018-12-07T05:23:09.960Z,10.97
2018-12-07T05:25:13.828Z,8.07
2018-12-07T05:27:19.705Z,8.53
2018-12-07T05:29:28.118Z,8.90
2018-12-07T05:31:32.236Z,9.30
2018-12-07T05:33:36.134Z,9.63
2018-12-07T05:35:45.791Z,8.30
2018-12-07T05:37:54.875Z,9.90
2018-12-07T05:40:04.093Z,8.43
2018-12-07T05:42:12.498Z,8.47
2018-12-07T05:44:16.781Z,8.67
2018-12-07T05:46:20.642Z,7.37
2018-12-07T05:48:30.968Z,8.07
2018-12-07T05:50:35.354Z,8.60
2018-12-07T05:52:39.358Z,7.87
2018-12-07T05:54:47.901Z,7.40
2018-12-07T05:56:56.637Z,9.47
2018-12-07T05:59:05.559Z,9.50
2018-12-07T06:01:14.446Z,12.77
2018-12-07T06:03:18.189Z,9.50
2018-12-07T06:05:26.856Z,6.77
2018-12-07T06:07:30.926Z,8.43
2018-12-07T06:09:39.573Z,7.30
2018-12-07T06:11:43.705Z,10.03
2018-12-07T06:13:52.584Z,7.13
2018-12-07T06:16:01.361Z,5.77
2018-12-07T06:18:05.775Z,6.23
2018-12-07T06:20:14.148Z,6.57
2018-12-07T06:22:20.605Z,6.47
2018-12-07T06:24:23.989Z,6.67
2018-12-07T06:26:30.046Z,6.73
2018-12-07T06:28:33.781Z,5.97
2018-12-07T06:30:37.377Z,6.47
2018-12-07T06:32:43.158Z,6.27
2018-12-07T06:34:51.845Z,6.50
2018-12-07T06:36:56.053Z,5.90
2018-12-07T06:39:05.995Z,6.23
2018-12-07T06:41:09.568Z,6.80
2018-12-07T06:43:19.079Z,9.13
2018-12-07T06:45:28.701Z,5.00
2018-12-07T06:47:37.904Z,4.53
2018-12-07T06:49:46.719Z,7.40
2018-12-07T06:51:50.775Z,6.80
2018-12-07T06:53:54.871Z,5.40
2018-12-07T06:55:58.844Z,6.00
2018-12-07T06:58:02.876Z,5.53
2018-12-07T07:00:07.812Z,5.07
2018-12-07T07:02:11.628Z,4.40
2018-12-07T07:04:15.785Z,5.33
2018-12-07T07:08:35.467Z,6.10
2018-12-07T07:10:44.190Z,5.60
2018-12-07T07:12:52.828Z,5.03
2018-12-07T07:15:04.624Z,6.33
2018-12-07T07:17:08.508Z,4.80
2018-12-07T07:19:17.407Z,4.97
2018-12-07T07:21:26.066Z,4.77
2018-12-07T07:23:30.248Z,5.40
2018-12-07T07:25:34.092Z,4.93
2018-12-07T07:27:42.845Z,5.73
2018-12-07T07:29:51.875Z,4.03
2018-12-07T07:38:11.957Z,5.00
2018-12-07T07:40:16.007Z,4.57
2018-12-07T07:42:22.096Z,4.27
2018-12-07T07:44:26.030Z,5.77
2018-12-07T07:46:29.920Z,4.17
2018-12-07T07:48:38.464Z,5.37
2018-12-07T07:50:42.551Z,5.57
2018-12-07T07:52:52.333Z,5.17
2018-12-07T07:54:56.542Z,6.10
2018-12-07T07:57:05.066Z,4.17
2018-12-07T07:59:09.040Z,4.80
2018-12-07T08:01:14.881Z,3.47
2018-12-07T08:03:18.684Z,4.70
2018-12-07T08:05:22.725Z,4.20
2018-12-07T08:07:26.556Z,4.83
2018-12-07T08:09:35.192Z,5.13
2018-12-07T08:11:39.060Z,4.60
2018-12-07T08:13:48.879Z,5.23
2018-12-07T08:15:57.532Z,3.73
2018-12-07T08:18:01.536Z,3.77
2018-12-07T08:20:10.373Z,3.47
2018-12-07T08:22:14.345Z,3.73
2018-12-07T08:24:23.201Z,3.93
2018-12-07T08:26:27.208Z,4.47
2018-12-07T08:28:31.085Z,5.77
2018-12-07T08:30:40.140Z,3.97
2018-12-07T08:32:43.883Z,3.90
2018-12-07T08:34:47.790Z,5.40
2018-12-07T08:38:55.800Z,3.73
2018-12-07T08:40:59.730Z,3.93
2018-12-07T08:43:08.600Z,3.80
2018-12-07T08:45:12.533Z,6.10
2018-12-07T08:47:21.111Z,4.23
2018-12-07T08:49:30.779Z,5.27
2018-12-07T08:51:39.709Z,2.97
2018-12-07T08:53:43.788Z,3.03
2018-12-07T08:55:47.745Z,3.27
2018-12-07T08:57:56.379Z,3.30
2018-12-07T09:00:02.533Z,3.13
2018-12-07T09:02:06.475Z,3.50
2018-12-07T09:04:10.347Z,3.20
2018-12-07T09:06:14.073Z,2.90
2018-12-07T09:08:17.880Z,3.03
2018-12-07T09:10:21.740Z,3.17
2018-12-07T09:12:25.730Z,3.33
2018-12-07T09:14:34.485Z,2.40
2018-12-07T09:16:38.252Z,4.57
2018-12-07T09:18:46.732Z,2.47
2018-12-07T09:20:55.585Z,2.40
2018-12-07T09:23:04.577Z,2.60
2018-12-07T09:25:08.476Z,2.47
2018-12-07T09:27:12.340Z,2.63
2018-12-07T09:29:16.291Z,2.43
2018-12-07T09:31:20.420Z,2.40
2018-12-07T09:33:28.928Z,2.17
2018-12-07T09:35:37.880Z,2.33
2018-12-07T09:37:47.631Z,2.20
2018-12-07T09:39:51.704Z,1.70
2018-12-07T09:42:00.259Z,2.10
2018-12-07T09:44:06.171Z,2.10
2018-12-07T09:46:14.712Z,2.13
2018-12-07T09:48:18.805Z,1.90
2018-12-07T09:50:27.432Z,1.50
2018-12-07T09:52:36.363Z,2.00
2018-12-07T09:54:45.301Z,1.67
2018-12-07T09:56:54.161Z,2.07
2018-12-07T09:59:03.018Z,1.53
2018-12-07T10:01:09.149Z,1.90
2018-12-07T10:03:17.717Z,2.00
2018-12-07T10:05:21.724Z,1.37
2018-12-07T10:07:28.659Z,1.57
2018-12-07T10:09:32.667Z,1.97
2018-12-07T10:11:41.289Z,1.50
2018-12-07T10:13:45.295Z,1.70
2018-12-07T10:15:49.318Z,1.30
2018-12-07T10:17:53.042Z,1.00
2018-12-07T10:20:01.675Z,1.30
2018-12-07T10:22:10.600Z,1.50
2018-12-07T10:24:19.329Z,1.70
2018-12-07T10:26:28.163Z,1.77
2018-12-07T10:28:32.261Z,1.30
2018-12-07T10:30:35.948Z,3.30
2018-12-07T10:32:44.644Z,1.50
2018-12-07T10:34:49.022Z,1.77
2018-12-07T10:36:52.858Z,2.10
2018-12-07T10:47:11.308Z,2.70
2018-12-07T10:49:15.197Z,2.67
2018-12-07T10:51:19.232Z,4.07
2018-12-07T10:53:27.953Z,2.50
2018-12-07T10:55:36.817Z,3.43
2018-12-07T10:57:45.776Z,2.63
2018-12-07T10:59:49.838Z,12.10
2018-12-07T11:02:04.084Z,3.63
2018-12-07T11:04:18.303Z,2.23
2018-12-07T11:06:28.184Z,4.10
2018-12-07T11:08:42.588Z,3.53
2018-12-07T11:10:51.704Z,5.40
2018-12-07T11:13:01.420Z,3.50
2018-12-07T11:17:54.073Z,4.03
2018-12-07T11:20:03.979Z,4.37
2018-12-07T11:22:13.136Z,4.33
2018-12-07T11:24:27.580Z,4.37
2018-12-07T11:26:42.458Z,4.50
2018-12-07T11:28:54.292Z,5.03
2018-12-07T11:31:04.226Z,5.30
2018-12-07T11:33:13.959Z,4.57
2018-12-07T11:35:24.396Z,4.87
2018-12-07T11:37:32.883Z,4.57
2018-12-07T11:39:41.833Z,7.10
2018-12-07T11:41:50.556Z,3.67
2018-12-07T11:43:59.544Z,4.10
2018-12-07T11:46:08.401Z,4.27
2018-12-07T11:48:12.516Z,4.90
2018-12-07T11:50:16.336Z,4.27
2018-12-07T11:52:22.077Z,4.17
2018-12-07T11:54:26.020Z,4.17
2018-12-07T11:56:29.844Z,4.13
2018-12-07T11:58:33.604Z,5.30
2018-12-07T12:00:42.441Z,5.43
2018-12-07T12:02:46.604Z,4.93
2018-12-07T12:04:50.284Z,3.83
2018-12-07T12:06:54.161Z,6.07
2018-12-07T12:09:04.271Z,4.20
2018-12-07T12:11:07.807Z,3.83
2018-12-07T12:13:16.683Z,4.07
2018-12-07T12:15:20.483Z,4.73
2018-12-07T12:17:26.331Z,4.13
2018-12-07T12:19:34.971Z,4.83
2018-12-07T12:21:39.085Z,4.53
2018-12-07T12:23:43.052Z,5.07
2018-12-07T12:25:51.789Z,4.33
2018-12-07T12:27:55.830Z,3.80
2018-12-07T12:30:05.176Z,6.30
2018-12-07T12:32:14.329Z,13.30
2018-12-07T12:34:20.561Z,3.37
2018-12-07T12:36:29.288Z,3.13
2018-12-07T12:38:33.292Z,4.03
2018-12-07T12:40:37.303Z,3.97
2018-12-07T12:42:45.971Z,3.17
2018-12-07T12:44:50.069Z,3.97
2018-12-07T12:46:58.800Z,3.67
2018-12-07T12:49:07.526Z,3.57
2018-12-07T12:51:11.581Z,3.10
2018-12-07T12:53:15.613Z,5.03
2018-12-07T12:55:24.996Z,3.43
2018-12-07T12:57:29.346Z,4.30
2018-12-07T12:59:33.460Z,4.07
2018-12-07T13:01:39.077Z,2.87
2018-12-07T13:03:42.958Z,3.23
2018-12-07T13:05:51.813Z,3.20
2018-12-07T13:07:55.713Z,3.27
2018-12-07T13:09:59.530Z,3.23
2018-12-07T13:12:05.737Z,4.47
2018-12-07T13:14:14.349Z,3.37
2018-12-07T13:16:22.881Z,4.23
2018-12-07T13:18:31.747Z,4.43
2018-12-07T13:20:35.692Z,3.30
2018-12-07T13:22:46.091Z,3.30
2018-12-07T13:24:50.426Z,4.57
2018-12-07T13:26:54.159Z,3.90
2018-12-07T13:29:02.832Z,3.20
2018-12-07T13:31:06.977Z,3.50
2018-12-07T13:33:15.416Z,3.03
2018-12-07T13:35:21.230Z,4.80
2018-12-07T13:37:30.085Z,5.00
2018-12-07T13:39:39.689Z,4.37
2018-12-07T13:41:50.535Z,4.37
2018-12-07T13:43:54.811Z,7.10
2018-12-07T13:45:58.729Z,3.83
2018-12-07T13:48:02.626Z,4.13
2018-12-07T13:50:17.707Z,3.77
2018-12-07T13:52:21.826Z,3.50
2018-12-07T13:54:27.725Z,4.00
2018-12-07T13:56:31.675Z,5.73
2018-12-07T13:58:35.589Z,4.40
2018-12-07T14:00:39.707Z,4.37
2018-12-07T14:02:43.457Z,6.97
2018-12-07T14:04:47.153Z,4.57
2018-12-07T14:06:50.983Z,4.10
2018-12-07T14:08:54.832Z,4.73
2018-12-07T14:11:04.580Z,4.67
2018-12-07T14:13:08.750Z,4.20
2018-12-07T14:15:12.465Z,5.13
2018-12-07T14:17:21.270Z,4.60
2018-12-07T14:19:30.101Z,4.40
2018-12-07T14:21:35.976Z,5.07
2018-12-07T14:23:44.701Z,4.50
2018-12-07T14:25:53.289Z,6.87
2018-12-07T14:27:57.474Z,5.90
2018-12-07T14:30:01.215Z,4.07
2018-12-07T14:32:06.836Z,4.80
2018-12-07T14:34:15.544Z,7.10
2018-12-07T14:36:24.300Z,3.73
2018-12-07T14:38:28.027Z,3.60
2018-12-07T14:40:31.957Z,3.43
2018-12-07T14:42:35.961Z,4.00
2018-12-07T14:44:45.529Z,4.10
2018-12-07T14:46:49.480Z,4.03
2018-12-07T14:48:57.988Z,3.63
2018-12-07T14:51:02.002Z,3.83
2018-12-07T14:53:10.783Z,3.43
2018-12-07T14:55:15.021Z,3.90
2018-12-07T14:57:20.877Z,4.93
2018-12-07T14:59:25.027Z,3.40
2018-12-07T15:01:29.059Z,3.30
2018-12-07T15:03:38.620Z,3.37
2018-12-07T15:05:47.225Z,2.63
2018-12-07T15:07:56.047Z,3.07
2018-12-07T15:10:05.855Z,2.80
2018-12-07T15:12:09.848Z,3.00
2018-12-07T15:14:19.537Z,3.57
2018-12-07T15:16:28.521Z,2.90
2018-12-07T15:18:32.416Z,3.20
2018-12-07T15:20:36.860Z,3.53
2018-12-07T15:22:46.285Z,3.50
2018-12-07T15:24:55.100Z,3.30
2018-12-07T15:27:03.700Z,2.83
2018-12-07T15:29:12.949Z,3.10
2018-12-07T15:31:22.707Z,4.13
2018-12-07T15:33:28.531Z,4.13
2018-12-07T15:35:37.193Z,5.10
2018-12-07T15:37:41.279Z,5.33
2018-12-07T15:39:50.096Z,3.33
2018-12-07T15:41:58.716Z,3.93
2018-12-07T15:44:08.480Z,4.67
2018-12-07T15:46:17.729Z,4.77
2018-12-07T15:48:26.103Z,4.80
2018-12-07T15:50:32.192Z,4.07
2018-12-07T15:52:36.073Z,3.97
2018-12-07T15:54:44.824Z,3.33
2018-12-07T15:56:53.743Z,3.20
2018-12-07T15:58:58.004Z,3.63
2018-12-07T16:01:01.755Z,3.83
2018-12-07T16:03:05.576Z,3.50
2018-12-07T16:05:09.466Z,4.17
2018-12-07T16:07:18.319Z,2.97
2018-12-07T16:09:22.252Z,3.13
2018-12-07T16:11:28.031Z,3.73
2018-12-07T16:13:32.002Z,4.97
2018-12-07T16:15:35.871Z,5.13
2018-12-07T16:17:39.933Z,2.10
2018-12-07T16:19:48.452Z,5.40
2018-12-07T16:21:57.177Z,2.70
2018-12-07T16:24:01.352Z,2.77
2018-12-07T16:26:07.911Z,4.03
2018-12-07T16:28:11.805Z,2.50
2018-12-07T16:30:15.766Z,2.80
2018-12-07T16:32:22.533Z,3.03
2018-12-07T16:34:26.395Z,3.27
2018-12-07T16:36:30.076Z,2.70
2018-12-07T16:38:34.058Z,2.70
2018-12-07T16:40:42.619Z,4.47
2018-12-07T16:42:51.357Z,2.37
2018-12-07T16:45:00.417Z,2.60
2018-12-07T16:47:06.602Z,2.60
2018-12-07T16:49:15.352Z,2.47
2018-12-07T16:51:24.068Z,2.43
2018-12-07T16:53:33.062Z,2.47
2018-12-07T16:55:41.766Z,2.43
2018-12-07T16:57:50.866Z,2.93
2018-12-07T16:59:55.036Z,5.63
2018-12-07T17:02:01.375Z,2.73
2018-12-07T17:04:07.200Z,3.60
2018-12-07T17:06:15.718Z,3.23
2018-12-07T17:08:25.093Z,2.63
2018-12-07T17:10:33.897Z,5.23
2018-12-07T17:12:42.857Z,3.20
2018-12-07T17:14:51.402Z,1.90
2018-12-07T17:17:00.310Z,2.73
2018-12-07T17:19:09.053Z,2.90
2018-12-07T17:21:18.166Z,3.00
2018-12-07T17:23:21.815Z,2.90
2018-12-07T17:25:30.767Z,2.43
2018-12-07T17:27:34.690Z,2.50
2018-12-07T17:29:41.447Z,3.00
2018-12-07T17:31:47.528Z,3.57
2018-12-07T17:33:51.349Z,3.20
2018-12-07T17:35:54.976Z,4.43
2018-12-07T17:37:58.999Z,2.87
2018-12-07T17:40:07.774Z,10.17
2018-12-07T17:42:11.541Z,2.20
2018-12-07T17:44:15.601Z,3.10
2018-12-07T17:46:20.056Z,3.00
2018-12-07T17:48:25.934Z,2.50
2018-12-07T17:50:34.795Z,3.43
2018-12-07T17:52:38.843Z,8.87
2018-12-07T17:54:47.625Z,3.50
2018-12-07T17:56:51.532Z,3.73
2018-12-07T17:58:55.496Z,3.20
2018-12-07T18:00:59.165Z,4.63
2018-12-07T18:03:02.907Z,5.00
2018-12-07T18:05:07.681Z,4.60
2018-12-07T18:07:11.781Z,9.40
2018-12-07T18:09:20.454Z,7.93
2018-12-07T18:11:29.424Z,4.53
2018-12-07T18:13:35.593Z,2.90
2018-12-07T18:15:39.204Z,4.83
2018-12-07T18:17:47.985Z,9.13
2018-12-07T18:19:52.219Z,6.90
2018-12-07T18:21:56.264Z,9.43
2018-12-07T18:24:05.706Z,4.87
2018-12-07T18:26:11.857Z,4.77
2018-12-07T18:28:15.629Z,8.43
2018-12-07T18:30:19.968Z,8.13
2018-12-07T18:32:29.488Z,8.40
2018-12-07T18:34:38.800Z,7.33
2018-12-07T18:36:47.603Z,7.30
2018-12-07T18:38:51.733Z,7.13
2018-12-07T18:41:01.009Z,7.50
2018-12-07T18:43:09.857Z,10.10
2018-12-07T18:45:18.909Z,6.97
2018-12-07T18:47:22.860Z,4.77
2018-12-07T18:49:31.422Z,3.50
2018-12-07T18:51:40.467Z,5.83
2018-12-07T18:53:44.719Z,5.43
2018-12-07T18:55:53.505Z,3.70
2018-12-07T18:58:02.231Z,4.93
2018-12-07T19:00:07.822Z,6.63
2018-12-07T19:02:12.369Z,5.47
2018-12-07T19:04:19.103Z,4.47
2018-12-07T19:06:23.096Z,5.30
2018-12-07T19:08:27.096Z,5.67
2018-12-07T19:10:31.195Z,5.70
2018-12-07T19:12:34.884Z,4.07
2018-12-07T19:14:38.544Z,6.37
2018-12-07T19:16:47.605Z,6.60
2018-12-07T19:18:51.518Z,6.77
2018-12-07T19:21:00.483Z,7.33
2018-12-07T19:23:10.066Z,4.57
2018-12-07T19:25:14.272Z,4.87
2018-12-07T19:27:18.942Z,11.90
2018-12-07T19:29:22.721Z,8.27
2018-12-07T19:31:31.395Z,9.17
2018-12-07T19:33:35.529Z,7.60
2018-12-07T19:35:45.144Z,9.90
2018-12-07T19:37:53.921Z,10.03
2018-12-07T19:40:02.799Z,5.80
2018-12-07T19:42:06.638Z,9.73
2018-12-07T19:44:10.502Z,5.97
2018-12-07T19:46:20.308Z,8.97
2018-12-07T19:48:24.453Z,7.50
2018-12-07T19:50:28.317Z,8.37
2018-12-07T19:52:32.298Z,6.53
2018-12-07T19:54:40.883Z,5.27
2018-12-07T19:56:44.945Z,7.27
2018-12-07T19:58:53.756Z,4.30
2018-12-07T20:00:59.478Z,5.53
2018-12-07T20:03:03.437Z,5.53
2018-12-07T20:05:07.679Z,5.47
2018-12-07T20:07:17.226Z,4.97
2018-12-07T20:09:20.991Z,7.53
2018-12-07T20:11:26.739Z,9.13
2018-12-07T20:13:31.012Z,9.07
2018-12-07T20:15:39.540Z,10.10
2018-12-07T20:17:48.735Z,7.10
2018-12-07T20:19:52.763Z,8.63
2018-12-07T20:21:56.639Z,8.87
2018-12-07T20:24:06.129Z,10.20
2018-12-07T20:26:14.878Z,5.60
2018-12-07T20:28:23.710Z,9.80
2018-12-07T20:30:32.602Z,11.03
2018-12-07T20:36:52.286Z,10.63
2018-12-07T20:39:01.116Z,13.23
2018-12-07T20:41:10.096Z,13.73
2018-12-07T20:43:14.710Z,11.27
2018-12-07T20:45:19.917Z,10.17
2018-12-07T20:47:29.412Z,19.07
2018-12-07T20:49:39.536Z,11.63
2018-12-07T20:51:44.409Z,16.23
2018-12-07T20:53:48.838Z,15.10
2018-12-07T20:55:53.869Z,8.30
2018-12-07T20:57:58.755Z,16.50
2018-12-07T21:00:09.115Z,11.90
2018-12-07T21:02:14.652Z,9.80
2018-12-07T21:04:31.346Z,10.60
2018-12-07T21:09:43.836Z,11.40
2018-12-07T21:11:55.961Z,6.27
2018-12-07T21:14:05.284Z,10.70
2018-12-07T21:19:10.909Z,16.93
2018-12-07T21:21:14.810Z,15.63
2018-12-07T21:23:18.901Z,10.80
2018-12-07T21:25:22.682Z,15.90
2018-12-07T21:27:31.239Z,15.70
2018-12-07T21:29:35.117Z,11.33
2018-12-07T21:31:43.907Z,14.80
2018-12-07T21:33:50.006Z,14.17
2018-12-07T21:36:22.113Z,13.43
2018-12-07T21:38:26.255Z,15.13
2018-12-07T21:40:34.767Z,13.23
2018-12-07T21:42:38.617Z,11.87
2018-12-07T21:44:42.413Z,12.07
2018-12-07T21:46:46.164Z,11.73
2018-12-07T21:48:54.660Z,11.90
2018-12-07T21:51:02.469Z,12.77
2018-12-07T21:53:11.490Z,12.00
2018-12-07T21:55:21.213Z,14.70
2018-12-07T21:57:30.926Z,14.00
2018-12-07T21:59:34.910Z,15.03
2018-12-07T22:01:38.947Z,12.13
2018-12-07T22:03:43.136Z,10.23
2018-12-07T22:05:46.992Z,13.07
2018-12-07T22:07:55.506Z,7.13
2018-12-07T22:10:04.352Z,14.97
2018-12-07T22:12:13.227Z,13.07
2018-12-07T22:14:16.937Z,12.80
2018-12-07T22:16:25.544Z,9.03
2018-12-07T22:18:29.627Z,11.43
2018-12-07T22:20:39.087Z,10.97
2018-12-07T22:22:43.251Z,10.70
2018-12-07T22:24:52.691Z,15.20
2018-12-07T22:27:01.521Z,12.87
2018-12-07T22:29:05.819Z,7.83
2018-12-07T22:31:14.331Z,11.57
2018-12-07T22:33:20.925Z,6.80
2018-12-07T22:35:25.638Z,13.17
2018-12-07T22:37:29.379Z,13.20
2018-12-07T22:39:40.273Z,12.93
2018-12-07T22:41:44.304Z,11.93
2018-12-07T22:43:53.258Z,8.10
2018-12-07T22:45:57.040Z,10.67
2018-12-07T22:48:06.102Z,7.90
2018-12-07T22:50:15.760Z,15.70
2018-12-07T22:52:21.930Z,7.37
2018-12-07T22:54:25.575Z,15.13
2018-12-07T22:56:29.554Z,7.27
2018-12-07T22:58:33.421Z,10.67
2018-12-07T23:00:39.505Z,13.80
2018-12-07T23:02:45.342Z,17.73
2018-12-07T23:04:49.141Z,9.43
2018-12-07T23:06:53.004Z,11.07
2018-12-07T23:08:57.068Z,15.63
2018-12-07T23:11:02.917Z,10.83
2018-12-07T23:13:11.656Z,15.93
2018-12-07T23:15:20.589Z,10.03
2018-12-07T23:17:24.573Z,11.83
2018-12-07T23:19:33.256Z,16.53
2018-12-07T23:21:37.066Z,14.90
2018-12-07T23:23:41.087Z,10.30
2018-12-07T23:25:47.062Z,10.87
2018-12-07T23:27:50.908Z,9.80
2018-12-07T23:29:59.813Z,17.40
2018-12-07T23:32:03.883Z,15.63
2018-12-07T23:34:08.136Z,13.20
2018-12-07T23:36:16.699Z,13.97
2018-12-07T23:38:20.771Z,19.77
2018-12-07T23:40:24.580Z,10.83
2018-12-07T23:42:28.599Z,13.00
2018-12-07T23:44:32.515Z,14.30
2018-12-07T23:46:36.584Z,13.23
2018-12-07T23:48:45.325Z,11.80
2018-12-07T23:50:54.069Z,10.33
2018-12-07T23:52:58.395Z,11.10
2018-12-07T23:55:06.900Z,12.43
2018-12-07T23:57:15.639Z,11.07
2018-12-07T23:59:19.837Z,7.90
